Private Wetterstation Wechselburg
Wetterdaten: Donnerstag, 02.09.2021
Datum Zeit Temp. +2m Bodentemp. Temp.+5cm Temp. Wind Windchill X Diff Temp. Feuchte +2m Feuchte +5cm Luftdruck Regen Wind Richtung Richtung Sonnenschein Taupunkt Windchill Windben
02.09.2021 00:00 11,9 C 17,8 C 12,3 C 11,8 C 11,6 C 0,0 C 86 % 93 % 1023,9 hPa 0,0 l/m 0,0 km/h (0 Bft) O-NO 67 0 min 9,6 C 11,6 C 0,0 km/h (0 Bft)
02.09.2021 00:05 11,6 C 17,8 C 12,2 C 11,6 C 11,5 C 0,0 C 86 % 92 % 1023,9 hPa 0,0 l/m 0,0 km/h (0 Bft) O-NO 67 0 min 9,3 C 11,5 C 0,0 km/h (0 Bft)
02.09.2021 00:10 11,7 C 17,8 C 12,1 C 11,6 C 11,5 C 0,0 C 86 % 92 % 1023,9 hPa 0,0 l/m 0,0 km/h (0 Bft) O-NO 67 0 min 9,4 C 11,5 C 0,0 km/h (0 Bft)
02.09.2021 00:15 11,5 C 17,8 C 12,1 C 11,5 C 11,4 C 0,0 C 86 % 92 % 1024,0 hPa 0,0 l/m 0,0 km/h (0 Bft) O-NO 67 0 min 9,2 C 11,4 C 0,0 km/h (0 Bft)
02.09.2021 00:20 11,5 C 17,7 C 12,0 C 11,4 C 11,3 C 0,0 C 86 % 92 % 1024,0 hPa 0,0 l/m 0,0 km/h (0 Bft) O-NO 67 0 min 9,2 C 11,3 C 0,0 km/h (0 Bft)
02.09.2021 00:25 11,3 C 17,7 C 12,0 C 11,4 C 11,4 C 0,1 C 86 % 93 % 1024,0 hPa 0,0 l/m 0,0 km/h (0 Bft) O-NO 67 0 min 9,0 C 11,4 C 0,0 km/h (0 Bft)
02.09.2021 00:30 11,3 C 17,7 C 11,9 C 11,4 C 11,4 C 0,1 C 86 % 93 % 1024,0 hPa 0,0 l/m 0,0 km/h (0 Bft) O-NO 67 0 min 9,0 C 11,4 C 0,0 km/h (0 Bft)
02.09.2021 00:35 11,2 C 17,7 C 11,9 C 11,3 C 11,3 C 0,1 C 86 % 93 % 1024,8 hPa 0,0 l/m 0,0 km/h (0 Bft) O-NO 67 0 min 8,9 C 11,3 C 0,0 km/h (0 Bft)
02.09.2021 00:40 11,1 C 17,8 C 11,8 C 11,2 C 11,2 C 0,1 C 86 % 93 % 1024,8 hPa 0,0 l/m 0,0 km/h (0 Bft) O-NO 67 0 min 8,8 C 11,2 C 0,0 km/h (0 Bft)
02.09.2021 00:45 11,1 C 17,8 C 11,8 C 11,3 C 11,3 C 0,2 C 86 % 93 % 1024,8 hPa 0,0 l/m 0,0 km/h (0 Bft) O-NO 67 0 min 8,8 C 11,3 C 0,0 km/h (0 Bft)
02.09.2021 00:50 11,0 C 17,8 C 11,7 C 11,2 C 11,2 C 0,2 C 86 % 93 % 1024,8 hPa 0,0 l/m 0,0 km/h (0 Bft) O-NO 67 0 min 8,7 C 11,2 C 0,0 km/h (0 Bft)
02.09.2021 00:55 10,9 C 17,8 C 11,7 C 11,1 C 11,1 C 0,2 C 86 % 93 % 1024,0 hPa 0,0 l/m 0,0 km/h (0 Bft) O-NO 67 0 min 8,7 C 11,1 C 0,0 km/h (0 Bft)
02.09.2021 01:00 10,8 C 17,8 C 11,7 C 11,0 C 11,0 C 0,2 C 86 % 93 % 1024,0 hPa 0,0 l/m 0,0 km/h (0 Bft) O-NO 67 0 min 8,6 C 11,0 C 0,0 km/h (0 Bft)
02.09.2021 01:05 10,8 C 17,8 C 11,6 C 10,9 C 10,9 C 0,1 C 86 % 93 % 1024,0 hPa 0,0 l/m 0,0 km/h (0 Bft) O-NO 67 0 min 8,6 C 10,9 C 0,0 km/h (0 Bft)
02.09.2021 01:10 10,7 C 17,8 C 11,6 C 10,9 C 10,9 C 0,2 C 86 % 93 % 1024,0 hPa 0,0 l/m 0,0 km/h (0 Bft) O-NO 67 0 min 8,5 C 10,9 C 0,0 km/h (0 Bft)
02.09.2021 01:15 10,7 C 17,8 C 11,5 C 10,9 C 10,9 C 0,2 C 86 % 93 % 1024,0 hPa 0,0 l/m 0,0 km/h (0 Bft) O-NO 67 0 min 8,5 C 10,9 C 0,0 km/h (0 Bft)
02.09.2021 01:20 10,5 C 17,7 C 11,5 C 10,9 C 10,9 C 0,4 C 86 % 93 % 1024,0 hPa 0,0 l/m 0,0 km/h (0 Bft) O-NO 67 0 min 8,3 C 10,9 C 0,0 km/h (0 Bft)
02.09.2021 01:25 10,4 C 17,7 C 11,4 C 10,8 C 10,8 C 0,4 C 86 % 93 % 1024,0 hPa 0,0 l/m 0,0 km/h (0 Bft) O-NO 67 0 min 8,2 C 10,8 C 0,0 km/h (0 Bft)
02.09.2021 01:30 10,4 C 17,7 C 11,3 C 10,6 C 10,6 C 0,2 C 86 % 93 % 1024,0 hPa 0,0 l/m 0,0 km/h (0 Bft) O-NO 67 0 min 8,2 C 10,6 C 0,0 km/h (0 Bft)
02.09.2021 01:35 10,3 C 17,7 C 11,3 C 10,4 C 10,4 C 0,1 C 86 % 93 % 1023,9 hPa 0,0 l/m 0,0 km/h (0 Bft) O-NO 67 0 min 8,1 C 10,4 C 0,0 km/h (0 Bft)
02.09.2021 01:40 10,3 C 17,7 C 11,1 C 10,4 C 10,4 C 0,1 C 86 % 93 % 1023,9 hPa 0,0 l/m 0,0 km/h (0 Bft) O-NO 67 0 min 8,1 C 10,4 C 0,0 km/h (0 Bft)
02.09.2021 01:45 10,2 C 17,7 C 11,1 C 10,2 C 10,2 C 0,0 C 86 % 93 % 1023,9 hPa 0,0 l/m 0,0 km/h (0 Bft) O-NO 67 0 min 8,0 C 10,2 C 0,0 km/h (0 Bft)
02.09.2021 01:50 10,1 C 17,7 C 11,0 C 10,1 C 10,1 C 0,0 C 86 % 93 % 1023,9 hPa 0,0 l/m 0,0 km/h (0 Bft) O-NO 67 0 min 7,9 C 10,1 C 0,0 km/h (0 Bft)
02.09.2021 01:55 10,0 C 17,7 C 11,0 C 10,0 C 10,0 C 0,0 C 86 % 93 % 1024,1 hPa 0,0 l/m 0,0 km/h (0 Bft) O-NO 67 0 min 7,8 C 10,0 C 0,0 km/h (0 Bft)
02.09.2021 02:00 9,9 C 17,7 C 10,9 C 10,0 C 10,0 C 0,1 C 86 % 93 % 1024,1 hPa 0,0 l/m 0,0 km/h (0 Bft) O-NO 67 0 min 7,7 C 10,0 C 0,0 km/h (0 Bft)
02.09.2021 02:05 9,8 C 17,7 C 10,9 C 10,0 C 10,0 C 0,2 C 86 % 93 % 1024,1 hPa 0,0 l/m 0,0 km/h (0 Bft) O-NO 67 0 min 7,6 C 10,0 C 0,0 km/h (0 Bft)
02.09.2021 02:10 9,9 C 17,6 C 10,9 C 10,0 C 10,0 C 0,1 C 86 % 93 % 1024,1 hPa 0,0 l/m 0,0 km/h (0 Bft) O-NO 67 0 min 7,7 C 10,0 C 0,0 km/h (0 Bft)
02.09.2021 02:15 9,7 C 17,6 C 10,9 C 10,0 C 10,0 C 0,3 C 86 % 93 % 1023,9 hPa 0,0 l/m 0,0 km/h (0 Bft) O-NO 67 0 min 7,5 C 10,0 C 0,0 km/h (0 Bft)
02.09.2021 02:20 9,6 C 17,6 C 10,8 C 9,9 C 9,9 C 0,3 C 86 % 93 % 1023,9 hPa 0,0 l/m 0,0 km/h (0 Bft) O-NO 67 0 min 7,4 C 9,9 C 0,0 km/h (0 Bft)
02.09.2021 02:25 9,6 C 17,6 C 10,7 C 9,9 C 9,9 C 0,3 C 86 % 93 % 1023,9 hPa 0,0 l/m 0,0 km/h (0 Bft) O-NO 67 0 min 7,4 C 9,9 C 0,0 km/h (0 Bft)
02.09.2021 02:30 9,5 C 17,6 C 10,7 C 10,0 C 10,0 C 0,5 C 86 % 93 % 1023,9 hPa 0,0 l/m 0,0 km/h (0 Bft) O-NO 67 0 min 7,3 C 10,0 C 0,0 km/h (0 Bft)
02.09.2021 02:35 9,5 C 17,6 C 10,6 C 10,0 C 10,0 C 0,5 C 86 % 93 % 1024,0 hPa 0,0 l/m 0,0 km/h (0 Bft) O-NO 67 0 min 7,3 C 10,0 C 0,0 km/h (0 Bft)
02.09.2021 02:40 9,4 C 17,6 C 10,6 C 9,9 C 9,9 C 0,5 C 86 % 93 % 1024,0 hPa 0,0 l/m 0,0 km/h (0 Bft) O-NO 67 0 min 7,2 C 9,9 C 0,0 km/h (0 Bft)
02.09.2021 02:45 9,3 C 17,6 C 10,6 C 9,8 C 9,8 C 0,5 C 86 % 93 % 1024,0 hPa 0,0 l/m 0,0 km/h (0 Bft) O-NO 67 0 min 7,1 C 9,8 C 0,0 km/h (0 Bft)
02.09.2021 02:50 9,2 C 17,6 C 10,5 C 9,8 C 9,8 C 0,6 C 86 % 93 % 1024,0 hPa 0,0 l/m 0,0 km/h (0 Bft) O-NO 67 0 min 7,0 C 9,8 C 0,0 km/h (0 Bft)
02.09.2021 02:55 9,2 C 17,5 C 10,4 C 9,6 C 9,6 C 0,4 C 86 % 93 % 1024,2 hPa 0,0 l/m 0,0 km/h (0 Bft) O-NO 67 0 min 7,0 C 9,6 C 0,0 km/h (0 Bft)
02.09.2021 03:00 9,1 C 17,5 C 10,4 C 9,6 C 9,6 C 0,5 C 86 % 93 % 1024,2 hPa 0,0 l/m 0,0 km/h (0 Bft) O-NO 67 0 min 6,9 C 9,6 C 0,0 km/h (0 Bft)
02.09.2021 03:05 9,1 C 17,5 C 10,3 C 9,5 C 9,5 C 0,4 C 86 % 93 % 1024,2 hPa 0,0 l/m 0,0 km/h (0 Bft) O-NO 67 0 min 6,9 C 9,5 C 0,0 km/h (0 Bft)
02.09.2021 03:10 9,1 C 17,5 C 10,3 C 9,4 C 9,4 C 0,3 C 86 % 93 % 1024,2 hPa 0,0 l/m 0,0 km/h (0 Bft) O-NO 67 0 min 6,9 C 9,4 C 0,0 km/h (0 Bft)
02.09.2021 03:15 8,9 C 17,5 C 10,3 C 9,5 C 9,5 C 0,6 C 86 % 93 % 1023,9 hPa 0,0 l/m 0,0 km/h (0 Bft) O-NO 67 0 min 6,7 C 9,5 C 0,0 km/h (0 Bft)
02.09.2021 03:20 8,9 C 17,5 C 10,3 C 9,6 C 9,6 C 0,7 C 86 % 93 % 1023,9 hPa 0,0 l/m 0,0 km/h (0 Bft) O-NO 67 0 min 6,7 C 9,6 C 0,0 km/h (0 Bft)
02.09.2021 03:25 8,9 C 17,5 C 10,3 C 9,9 C 9,9 C 1,0 C 86 % 93 % 1023,9 hPa 0,0 l/m 0,0 km/h (0 Bft) O-NO 67 0 min 6,7 C 9,9 C 0,0 km/h (0 Bft)
02.09.2021 03:30 8,9 C 17,5 C 10,3 C 9,9 C 9,9 C 1,0 C 86 % 93 % 1023,9 hPa 0,0 l/m 0,0 km/h (0 Bft) O-NO 67 0 min 6,7 C 9,9 C 0,0 km/h (0 Bft)
02.09.2021 03:35 8,8 C 17,5 C 10,3 C 9,8 C 9,8 C 1,0 C 86 % 93 % 1024,4 hPa 0,0 l/m 0,0 km/h (0 Bft) O-NO 67 0 min 6,6 C 9,8 C 0,0 km/h (0 Bft)
02.09.2021 03:40 8,8 C 17,5 C 10,3 C 9,9 C 9,9 C 1,1 C 86 % 93 % 1024,4 hPa 0,0 l/m 0,0 km/h (0 Bft) O-NO 67 0 min 6,6 C 9,9 C 0,0 km/h (0 Bft)
02.09.2021 03:45 8,8 C 17,4 C 10,3 C 9,8 C 9,8 C 1,0 C 86 % 93 % 1024,4 hPa 0,0 l/m 0,0 km/h (0 Bft) O-NO 67 0 min 6,6 C 9,8 C 0,0 km/h (0 Bft)
02.09.2021 03:50 8,8 C 17,4 C 10,2 C 9,8 C 9,8 C 1,0 C 86 % 93 % 1024,4 hPa 0,0 l/m 0,0 km/h (0 Bft) O-NO 67 0 min 6,6 C 9,8 C 0,0 km/h (0 Bft)
02.09.2021 03:55 8,7 C 17,4 C 10,0 C 9,5 C 9,5 C 0,8 C 86 % 93 % 1024,4 hPa 0,0 l/m 0,0 km/h (0 Bft) O-NO 67 0 min 6,5 C 9,5 C 0,0 km/h (0 Bft)
02.09.2021 04:00 8,7 C 17,4 C 9,9 C 9,3 C 9,3 C 0,6 C 86 % 93 % 1024,4 hPa 0,0 l/m 0,0 km/h (0 Bft) O-NO 67 0 min 6,5 C 9,3 C 0,0 km/h (0 Bft)
02.09.2021 04:05 8,5 C 17,4 C 9,9 C 9,2 C 9,2 C 0,7 C 86 % 93 % 1024,4 hPa 0,0 l/m 0,0 km/h (0 Bft) O-NO 67 0 min 6,3 C 9,2 C 0,0 km/h (0 Bft)
02.09.2021 04:10 8,5 C 17,4 C 9,9 C 9,2 C 9,2 C 0,7 C 86 % 93 % 1024,4 hPa 0,0 l/m 0,0 km/h (0 Bft) O-NO 67 0 min 6,3 C 9,2 C 0,0 km/h (0 Bft)
02.09.2021 04:15 8,4 C 17,4 C 9,8 C 9,0 C 9,0 C 0,6 C 87 % 93 % 1024,4 hPa 0,0 l/m 0,0 km/h (0 Bft) O-NO 67 0 min 6,4 C 9,0 C 0,0 km/h (0 Bft)
02.09.2021 04:20 8,4 C 17,4 C 9,8 C 9,0 C 9,0 C 0,6 C 87 % 93 % 1024,4 hPa 0,0 l/m 0,0 km/h (0 Bft) O-NO 67 0 min 6,4 C 9,0 C 0,0 km/h (0 Bft)
02.09.2021 04:25 8,3 C 17,3 C 9,9 C 9,2 C 9,2 C 0,9 C 87 % 94 % 1024,4 hPa 0,0 l/m 0,0 km/h (0 Bft) O-NO 67 0 min 6,3 C 9,2 C 0,0 km/h (0 Bft)
02.09.2021 04:30 8,3 C 17,3 C 9,9 C 9,3 C 9,3 C 1,0 C 87 % 94 % 1024,4 hPa 0,0 l/m 0,0 km/h (0 Bft) O-NO 67 0 min 6,3 C 9,3 C 0,0 km/h (0 Bft)
02.09.2021 04:35 8,3 C 17,3 C 9,9 C 9,3 C 9,3 C 1,0 C 87 % 94 % 1024,5 hPa 0,0 l/m 0,0 km/h (0 Bft) O-NO 67 0 min 6,3 C 9,3 C 0,0 km/h (0 Bft)
02.09.2021 04:40 8,3 C 17,3 C 10,0 C 9,4 C 9,4 C 1,1 C 87 % 94 % 1024,5 hPa 0,0 l/m 0,0 km/h (0 Bft) O-NO 67 0 min 6,3 C 9,4 C 0,0 km/h (0 Bft)
02.09.2021 04:45 8,4 C 17,3 C 10,0 C 9,6 C 9,6 C 1,2 C 87 % 94 % 1024,5 hPa 0,0 l/m 0,0 km/h (0 Bft) O-NO 67 0 min 6,4 C 9,6 C 0,0 km/h (0 Bft)
02.09.2021 04:50 8,4 C 17,3 C 10,0 C 9,7 C 9,7 C 1,3 C 87 % 94 % 1024,5 hPa 0,0 l/m 0,0 km/h (0 Bft) O-NO 67 0 min 6,4 C 9,7 C 0,0 km/h (0 Bft)
02.09.2021 04:55 8,5 C 17,3 C 10,0 C 9,6 C 9,6 C 1,1 C 87 % 94 % 1024,5 hPa 0,0 l/m 0,0 km/h (0 Bft) O-NO 67 0 min 6,5 C 9,6 C 0,0 km/h (0 Bft)
02.09.2021 05:00 8,4 C 17,3 C 9,8 C 9,3 C 9,3 C 0,9 C 87 % 94 % 1024,5 hPa 0,0 l/m 0,0 km/h (0 Bft) O-NO 67 0 min 6,4 C 9,3 C 0,0 km/h (0 Bft)
02.09.2021 05:05 8,2 C 17,3 C 9,5 C 8,9 C 8,9 C 0,7 C 86 % 93 % 1024,5 hPa 0,0 l/m 0,0 km/h (0 Bft) O-NO 67 0 min 6,0 C 8,9 C 0,0 km/h (0 Bft)
02.09.2021 05:10 8,1 C 17,2 C 9,5 C 8,9 C 8,9 C 0,8 C 86 % 93 % 1024,5 hPa 0,0 l/m 0,0 km/h (0 Bft) O-NO 67 0 min 5,9 C 8,9 C 0,0 km/h (0 Bft)
02.09.2021 05:15 8,1 C 17,2 C 9,6 C 8,8 C 8,8 C 0,7 C 86 % 94 % 1024,4 hPa 0,0 l/m 0,0 km/h (0 Bft) O-NO 67 0 min 5,9 C 8,8 C 0,0 km/h (0 Bft)
02.09.2021 05:20 8,0 C 17,2 C 9,5 C 8,7 C 8,7 C 0,7 C 86 % 93 % 1024,4 hPa 0,0 l/m 0,0 km/h (0 Bft) O-NO 67 0 min 5,8 C 8,7 C 0,0 km/h (0 Bft)
02.09.2021 05:25 7,9 C 17,2 C 9,5 C 8,7 C 8,7 C 0,8 C 86 % 93 % 1024,4 hPa 0,0 l/m 0,0 km/h (0 Bft) O-NO 67 0 min 5,7 C 8,7 C 0,0 km/h (0 Bft)
02.09.2021 05:30 7,8 C 17,2 C 9,5 C 8,7 C 8,7 C 0,9 C 86 % 93 % 1024,4 hPa 0,0 l/m 0,0 km/h (0 Bft) O-NO 67 0 min 5,6 C 8,7 C 0,0 km/h (0 Bft)
02.09.2021 05:35 7,9 C 17,2 C 9,5 C 8,7 C 8,7 C 0,8 C 86 % 93 % 1024,4 hPa 0,0 l/m 0,0 km/h (0 Bft) O-NO 67 0 min 5,7 C 8,7 C 0,0 km/h (0 Bft)
02.09.2021 05:40 7,8 C 17,2 C 9,5 C 8,6 C 8,6 C 0,8 C 86 % 93 % 1024,4 hPa 0,0 l/m 0,0 km/h (0 Bft) O-NO 67 0 min 5,6 C 8,6 C 0,0 km/h (0 Bft)
02.09.2021 05:45 7,7 C 17,2 C 9,4 C 8,7 C 8,7 C 1,0 C 86 % 94 % 1024,4 hPa 0,0 l/m 0,0 km/h (0 Bft) O-NO 67 0 min 5,5 C 8,7 C 0,0 km/h (0 Bft)
02.09.2021 05:50 7,7 C 17,2 C 9,5 C 8,9 C 8,9 C 1,2 C 86 % 94 % 1024,4 hPa 0,0 l/m 0,0 km/h (0 Bft) O-NO 67 0 min 5,5 C 8,9 C 0,0 km/h (0 Bft)
02.09.2021 05:55 7,9 C 17,1 C 9,7 C 9,1 C 9,1 C 1,2 C 86 % 94 % 1024,4 hPa 0,0 l/m 0,0 km/h (0 Bft) O-NO 67 0 min 5,7 C 9,1 C 0,0 km/h (0 Bft)
02.09.2021 06:00 7,9 C 17,1 C 9,7 C 9,2 C 9,2 C 1,3 C 86 % 94 % 1024,4 hPa 0,0 l/m 0,0 km/h (0 Bft) O-NO 67 0 min 5,7 C 9,2 C 0,0 km/h (0 Bft)
02.09.2021 06:05 7,8 C 17,1 C 9,6 C 9,0 C 9,0 C 1,2 C 86 % 94 % 1024,4 hPa 0,0 l/m 0,0 km/h (0 Bft) O-NO 67 0 min 5,6 C 9,0 C 0,0 km/h (0 Bft)
02.09.2021 06:10 7,9 C 17,1 C 9,5 C 9,0 C 9,0 C 1,1 C 86 % 94 % 1024,4 hPa 0,0 l/m 0,0 km/h (0 Bft) O-NO 67 0 min 5,7 C 9,0 C 0,0 km/h (0 Bft)
02.09.2021 06:15 7,8 C 17,1 C 9,6 C 8,9 C 8,9 C 1,1 C 86 % 94 % 1024,5 hPa 0,0 l/m 0,0 km/h (0 Bft) O-NO 67 0 min 5,6 C 8,9 C 0,0 km/h (0 Bft)
02.09.2021 06:20 7,7 C 17,1 C 9,5 C 8,8 C 8,8 C 1,1 C 86 % 94 % 1024,5 hPa 0,0 l/m 0,0 km/h (0 Bft) O-NO 67 0 min 5,5 C 8,8 C 0,0 km/h (0 Bft)
02.09.2021 06:25 7,7 C 17,1 C 9,5 C 8,7 C 8,7 C 1,0 C 86 % 94 % 1024,5 hPa 0,0 l/m 0,0 km/h (0 Bft) O-NO 67 0 min 5,5 C 8,7 C 0,0 km/h (0 Bft)
02.09.2021 06:30 7,6 C 17,1 C 9,4 C 8,6 C 8,6 C 1,0 C 86 % 94 % 1024,5 hPa 0,0 l/m 0,0 km/h (0 Bft) O-NO 67 0 min 5,4 C 8,6 C 0,0 km/h (0 Bft)
02.09.2021 06:35 7,6 C 17,1 C 9,5 C 8,7 C 8,7 C 1,1 C 86 % 94 % 1025,2 hPa 0,0 l/m 0,0 km/h (0 Bft) O-NO 67 5 min 5,4 C 8,7 C 0,0 km/h (0 Bft)
02.09.2021 06:40 7,7 C 17,1 C 9,5 C 8,8 C 8,8 C 1,1 C 86 % 94 % 1025,2 hPa 0,0 l/m 0,0 km/h (0 Bft) O-NO 67 5 min 5,5 C 8,8 C 0,0 km/h (0 Bft)
02.09.2021 06:45 7,7 C 17,0 C 9,5 C 8,7 C 8,7 C 1,0 C 86 % 94 % 1025,2 hPa 0,0 l/m 0,0 km/h (0 Bft) O-NO 67 5 min 5,5 C 8,7 C 0,0 km/h (0 Bft)
02.09.2021 06:50 7,6 C 17,0 C 9,4 C 8,7 C 8,7 C 1,1 C 86 % 94 % 1025,2 hPa 0,0 l/m 0,0 km/h (0 Bft) O-NO 67 5 min 5,4 C 8,7 C 0,0 km/h (0 Bft)
02.09.2021 06:55 7,5 C 17,0 C 9,4 C 8,9 C 8,9 C 1,4 C 86 % 94 % 1024,8 hPa 0,0 l/m 0,0 km/h (0 Bft) O-NO 67 5 min 5,3 C 8,9 C 0,0 km/h (0 Bft)
02.09.2021 07:00 7,5 C 17,0 C 9,5 C 9,0 C 9,0 C 1,5 C 86 % 94 % 1024,8 hPa 0,0 l/m 0,0 km/h (0 Bft) O-NO 67 5 min 5,3 C 9,0 C 0,0 km/h (0 Bft)
02.09.2021 07:05 7,7 C 17,0 C 9,6 C 9,3 C 9,3 C 1,6 C 86 % 94 % 1024,8 hPa 0,0 l/m 0,0 km/h (0 Bft) O-NO 67 5 min 5,5 C 9,3 C 0,0 km/h (0 Bft)
02.09.2021 07:10 7,7 C 17,0 C 9,6 C 9,3 C 9,3 C 1,6 C 86 % 94 % 1024,8 hPa 0,0 l/m 0,0 km/h (0 Bft) O-NO 67 5 min 5,5 C 9,3 C 0,0 km/h (0 Bft)
02.09.2021 07:15 7,7 C 17,0 C 9,6 C 10,7 C 10,7 C 3,0 C 86 % 94 % 1025,3 hPa 0,0 l/m 0,0 km/h (0 Bft) O-NO 67 5 min 5,5 C 10,7 C 0,0 km/h (0 Bft)
02.09.2021 07:20 7,9 C 17,0 C 9,6 C 11,0 C 11,0 C 3,1 C 86 % 94 % 1025,3 hPa 0,0 l/m 0,0 km/h (0 Bft) O-NO 67 5 min 5,7 C 11,0 C 0,0 km/h (0 Bft)
02.09.2021 07:25 7,9 C 17,0 C 9,8 C 11,7 C 11,7 C 3,8 C 86 % 94 % 1025,3 hPa 0,0 l/m 0,0 km/h (0 Bft) O-NO 67 5 min 5,7 C 11,7 C 0,0 km/h (0 Bft)
02.09.2021 07:30 8,0 C 17,0 C 10,0 C 12,0 C 12,0 C 4,0 C 86 % 94 % 1025,3 hPa 0,0 l/m 0,0 km/h (0 Bft) O-NO 67 5 min 5,8 C 12,0 C 0,0 km/h (0 Bft)
02.09.2021 07:35 8,5 C 17,0 C 10,5 C 12,2 C 12,2 C 3,7 C 87 % 94 % 1025,2 hPa 0,0 l/m 0,0 km/h (0 Bft) O-NO 67 5 min 6,5 C 12,2 C 0,0 km/h (0 Bft)
02.09.2021 07:40 8,6 C 17,0 C 10,7 C 12,6 C 12,6 C 4,0 C 87 % 94 % 1025,2 hPa 0,0 l/m 0,0 km/h (0 Bft) O-NO 67 5 min 6,6 C 12,6 C 0,0 km/h (0 Bft)
02.09.2021 07:45 9,1 C 17,0 C 11,1 C 13,6 C 13,6 C 4,5 C 87 % 94 % 1025,2 hPa 0,0 l/m 0,0 km/h (0 Bft) O-NO 67 5 min 7,1 C 13,6 C 0,0 km/h (0 Bft)
02.09.2021 07:50 9,3 C 17,0 C 11,3 C 14,2 C 14,2 C 4,9 C 87 % 94 % 1025,2 hPa 0,0 l/m 0,0 km/h (0 Bft) O-NO 67 5 min 7,2 C 14,2 C 0,0 km/h (0 Bft)
02.09.2021 07:55 9,6 C 17,0 C 11,4 C 14,9 C 14,9 C 5,3 C 87 % 94 % 1025,1 hPa 0,0 l/m 0,0 km/h (0 Bft) O-NO 67 5 min 7,5 C 14,9 C 0,0 km/h (0 Bft)
02.09.2021 08:00 9,8 C 17,0 C 11,4 C 15,4 C 15,4 C 5,6 C 87 % 94 % 1025,1 hPa 0,0 l/m 0,0 km/h (0 Bft) O-NO 67 5 min 7,7 C 15,4 C 0,0 km/h (0 Bft)
02.09.2021 08:05 10,2 C 17,0 C 11,6 C 16,0 C 16,0 C 5,8 C 87 % 94 % 1025,1 hPa 0,0 l/m 0,0 km/h (0 Bft) O-NO 67 5 min 8,1 C 16,0 C 0,0 km/h (0 Bft)
02.09.2021 08:10 10,3 C 17,0 C 11,7 C 15,4 C 15,4 C 5,1 C 87 % 94 % 1025,1 hPa 0,0 l/m 0,0 km/h (0 Bft) O-NO 67 5 min 8,2 C 15,4 C 0,0 km/h (0 Bft)
02.09.2021 08:15 10,5 C 17,0 C 11,9 C 14,8 C 14,8 C 4,3 C 87 % 94 % 1025,4 hPa 0,0 l/m 0,0 km/h (0 Bft) O-SO 112 5 min 8,4 C 14,8 C 0,0 km/h (0 Bft)
02.09.2021 08:20 10,7 C 17,0 C 11,9 C 14,6 C 14,6 C 3,9 C 87 % 94 % 1025,4 hPa 0,0 l/m 0,0 km/h (0 Bft) S 180 5 min 8,6 C 14,6 C 0,0 km/h (0 Bft)
02.09.2021 08:25 10,8 C 17,0 C 12,1 C 14,4 C 14,4 C 3,6 C 87 % 94 % 1025,4 hPa 0,0 l/m 0,0 km/h (0 Bft) S 180 5 min 8,7 C 14,4 C 0,0 km/h (0 Bft)
02.09.2021 08:30 10,8 C 17,0 C 12,3 C 14,4 C 14,4 C 3,6 C 87 % 94 % 1025,4 hPa 0,0 l/m 0,0 km/h (0 Bft) S 180 5 min 8,7 C 14,4 C 0,0 km/h (0 Bft)
02.09.2021 08:35 11,0 C 17,0 C 12,3 C 14,3 C 14,3 C 3,3 C 87 % 94 % 1025,6 hPa 0,0 l/m 0,0 km/h (0 Bft) S 180 5 min 8,9 C 14,3 C 0,0 km/h (0 Bft)
02.09.2021 08:40 11,2 C 17,0 C 12,5 C 14,4 C 14,4 C 3,2 C 87 % 94 % 1025,6 hPa 0,0 l/m 0,0 km/h (0 Bft) S 180 0 min 9,1 C 14,4 C 0,0 km/h (0 Bft)
02.09.2021 08:45 11,4 C 17,0 C 12,7 C 14,4 C 14,4 C 3,0 C 87 % 94 % 1025,6 hPa 0,0 l/m 0,0 km/h (0 Bft) W-NW 292 0 min 9,3 C 14,4 C 0,0 km/h (0 Bft)
02.09.2021 08:50 11,5 C 17,0 C 12,7 C 14,4 C 14,4 C 2,9 C 87 % 94 % 1025,6 hPa 0,0 l/m 0,0 km/h (0 Bft) W-NW 292 0 min 9,4 C 14,4 C 0,0 km/h (0 Bft)
02.09.2021 08:55 11,6 C 16,9 C 12,8 C 14,5 C 14,5 C 2,9 C 87 % 94 % 1025,8 hPa 0,0 l/m 0,0 km/h (0 Bft) W-NW 292 0 min 9,5 C 14,5 C 0,0 km/h (0 Bft)
02.09.2021 09:00 11,9 C 16,9 C 12,9 C 14,5 C 14,5 C 2,6 C 87 % 94 % 1025,8 hPa 0,0 l/m 0,0 km/h (0 Bft) W-NW 292 0 min 9,8 C 14,5 C 0,0 km/h (0 Bft)
02.09.2021 09:05 12,0 C 16,9 C 13,1 C 14,7 C 14,7 C 2,7 C 87 % 94 % 1025,8 hPa 0,0 l/m 0,0 km/h (0 Bft) W-NW 292 0 min 9,9 C 14,7 C 0,0 km/h (0 Bft)
02.09.2021 09:10 12,0 C 16,9 C 13,2 C 14,8 C 14,8 C 2,8 C 87 % 94 % 1025,8 hPa 0,0 l/m 0,0 km/h (0 Bft) W-NW 292 0 min 9,9 C 14,8 C 0,0 km/h (0 Bft)
02.09.2021 09:15 12,3 C 16,9 C 13,4 C 15,0 C 15,0 C 2,7 C 87 % 94 % 1025,6 hPa 0,0 l/m 0,0 km/h (0 Bft) W-SW 247 0 min 10,2 C 15,0 C 0,0 km/h (0 Bft)
02.09.2021 09:20 12,3 C 16,9 C 13,4 C 15,1 C 15,1 C 2,8 C 87 % 94 % 1025,6 hPa 0,0 l/m 0,0 km/h (0 Bft) SW 225 0 min 10,2 C 15,1 C 0,0 km/h (0 Bft)
02.09.2021 09:25 12,5 C 16,9 C 13,5 C 15,3 C 15,3 C 2,8 C 87 % 94 % 1025,6 hPa 0,0 l/m 0,0 km/h (0 Bft) SW 225 0 min 10,4 C 15,3 C 0,0 km/h (0 Bft)
02.09.2021 09:30 12,7 C 16,9 C 13,5 C 15,4 C 15,4 C 2,7 C 87 % 94 % 1025,6 hPa 0,0 l/m 0,0 km/h (0 Bft) W 270 0 min 10,6 C 15,4 C 0,0 km/h (0 Bft)
02.09.2021 09:35 12,7 C 16,9 C 13,7 C 15,5 C 15,5 C 2,8 C 87 % 94 % 1025,8 hPa 0,0 l/m 0,0 km/h (0 Bft) W 270 0 min 10,6 C 15,5 C 0,0 km/h (0 Bft)
02.09.2021 09:40 12,9 C 16,9 C 13,8 C 15,6 C 15,6 C 2,7 C 87 % 94 % 1025,8 hPa 0,0 l/m 0,0 km/h (0 Bft) W 270 0 min 10,8 C 15,6 C 0,0 km/h (0 Bft)
02.09.2021 09:45 13,0 C 16,9 C 13,9 C 15,9 C 15,9 C 2,9 C 87 % 94 % 1025,8 hPa 0,0 l/m 0,0 km/h (0 Bft) W-SW 247 0 min 10,9 C 15,9 C 0,0 km/h (0 Bft)
02.09.2021 09:50 13,1 C 17,0 C 14,0 C 16,1 C 16,1 C 3,0 C 87 % 94 % 1025,8 hPa 0,0 l/m 0,0 km/h (0 Bft) SW 225 0 min 11,0 C 16,1 C 0,0 km/h (0 Bft)
02.09.2021 09:55 13,1 C 17,1 C 14,1 C 16,2 C 16,2 C 3,1 C 87 % 94 % 1025,6 hPa 0,0 l/m 0,2 km/h (0 Bft) S 180 0 min 11,0 C 16,2 C 0,0 km/h (0 Bft)
02.09.2021 10:00 13,3 C 17,1 C 14,2 C 16,3 C 16,3 C 3,0 C 87 % 94 % 1025,6 hPa 0,0 l/m 0,2 km/h (0 Bft) S 180 0 min 11,2 C 16,3 C 0,0 km/h (0 Bft)
02.09.2021 10:05 13,3 C 17,1 C 14,4 C 16,6 C 16,6 C 3,3 C 87 % 93 % 1025,6 hPa 0,0 l/m 0,3 km/h (0 Bft) W-SW 247 5 min 11,2 C 16,6 C 3,1 km/h (1 Bft)
02.09.2021 10:10 13,4 C 17,1 C 14,4 C 16,7 C 16,7 C 3,3 C 87 % 93 % 1025,6 hPa 0,0 l/m 0,2 km/h (0 Bft) SW 225 5 min 11,3 C 16,7 C 0,0 km/h (0 Bft)
02.09.2021 10:15 13,5 C 17,1 C 14,5 C 17,1 C 17,1 C 3,6 C 87 % 93 % 1025,8 hPa 0,0 l/m 0,2 km/h (0 Bft) SW 225 5 min 11,4 C 17,1 C 0,0 km/h (0 Bft)
02.09.2021 10:20 13,5 C 17,0 C 14,7 C 17,1 C 17,1 C 3,6 C 87 % 93 % 1025,8 hPa 0,0 l/m 0,0 km/h (0 Bft) SW 225 5 min 11,4 C 17,1 C 0,0 km/h (0 Bft)
02.09.2021 10:25 13,6 C 17,0 C 14,7 C 17,2 C 17,2 C 3,6 C 87 % 93 % 1025,8 hPa 0,0 l/m 0,0 km/h (0 Bft) SO 135 5 min 11,5 C 17,2 C 0,0 km/h (0 Bft)
02.09.2021 10:30 13,7 C 17,0 C 14,7 C 17,2 C 17,2 C 3,5 C 87 % 93 % 1025,8 hPa 0,0 l/m 0,0 km/h (0 Bft) W-SW 247 5 min 11,6 C 17,2 C 0,0 km/h (0 Bft)
02.09.2021 10:35 13,9 C 17,0 C 14,8 C 17,6 C 17,6 C 3,7 C 86 % 93 % 1025,9 hPa 0,0 l/m 0,0 km/h (0 Bft) SW 225 5 min 11,6 C 17,6 C 0,0 km/h (0 Bft)
02.09.2021 10:40 14,0 C 17,0 C 14,9 C 17,7 C 17,7 C 3,7 C 86 % 93 % 1025,9 hPa 0,0 l/m 0,0 km/h (0 Bft) N-NW 337 5 min 11,7 C 17,7 C 0,0 km/h (0 Bft)
02.09.2021 10:45 14,0 C 17,0 C 15,0 C 18,0 C 18,0 C 4,0 C 86 % 93 % 1025,9 hPa 0,0 l/m 0,0 km/h (0 Bft) SW 225 5 min 11,7 C 18,0 C 0,0 km/h (0 Bft)
02.09.2021 10:50 14,0 C 17,0 C 15,0 C 18,1 C 18,1 C 4,1 C 86 % 93 % 1025,9 hPa 0,0 l/m 0,2 km/h (0 Bft) SW 225 5 min 11,7 C 18,1 C 1,6 km/h (1 Bft)
02.09.2021 10:55 14,1 C 17,0 C 15,1 C 18,2 C 18,2 C 4,1 C 86 % 93 % 1025,9 hPa 0,0 l/m 0,2 km/h (0 Bft) W-NW 292 5 min 11,8 C 18,2 C 0,0 km/h (0 Bft)
02.09.2021 11:00 14,3 C 17,0 C 15,3 C 18,5 C 18,5 C 4,2 C 86 % 93 % 1025,9 hPa 0,0 l/m 0,2 km/h (0 Bft) O-NO 67 5 min 12,0 C 18,5 C 0,0 km/h (0 Bft)
02.09.2021 11:05 14,3 C 17,0 C 15,4 C 19,0 C 19,0 C 4,7 C 86 % 93 % 1025,9 hPa 0,0 l/m 0,0 km/h (0 Bft) SW 225 5 min 12,0 C 19,0 C 0,0 km/h (0 Bft)
02.09.2021 11:10 14,3 C 17,0 C 15,5 C 19,3 C 19,3 C 5,0 C 86 % 92 % 1025,9 hPa 0,0 l/m 0,2 km/h (0 Bft) SW 225 5 min 12,0 C 19,3 C 0,0 km/h (0 Bft)
02.09.2021 11:15 14,3 C 17,0 C 15,6 C 19,4 C 19,4 C 5,1 C 86 % 92 % 1026,2 hPa 0,0 l/m 0,3 km/h (0 Bft) SW 225 5 min 12,0 C 19,4 C 1,6 km/h (1 Bft)
02.09.2021 11:20 14,3 C 17,0 C 15,6 C 19,2 C 19,2 C 4,9 C 86 % 92 % 1026,2 hPa 0,0 l/m 0,2 km/h (0 Bft) W-SW 247 5 min 12,0 C 19,2 C 0,0 km/h (0 Bft)
02.09.2021 11:25 14,3 C 16,9 C 15,9 C 19,7 C 19,7 C 5,4 C 86 % 92 % 1026,2 hPa 0,0 l/m 0,0 km/h (0 Bft) SW 225 5 min 12,0 C 19,7 C 0,0 km/h (0 Bft)
02.09.2021 11:30 14,4 C 16,9 C 16,1 C 20,2 C 20,2 C 5,8 C 86 % 92 % 1026,2 hPa 0,0 l/m 0,0 km/h (0 Bft) SW 225 5 min 12,1 C 20,2 C 0,0 km/h (0 Bft)
02.09.2021 11:35 14,7 C 16,9 C 16,2 C 20,2 C 20,2 C 5,5 C 86 % 91 % 1026,4 hPa 0,0 l/m 0,2 km/h (0 Bft) W-SW 247 5 min 12,4 C 20,2 C 0,0 km/h (0 Bft)
02.09.2021 11:40 14,8 C 16,8 C 16,3 C 20,3 C 20,3 C 5,5 C 86 % 91 % 1026,4 hPa 0,0 l/m 0,3 km/h (0 Bft) W-SW 247 5 min 12,5 C 20,3 C 0,0 km/h (0 Bft)
02.09.2021 11:45 15,1 C 16,8 C 16,5 C 20,5 C 20,5 C 5,4 C 86 % 91 % 1026,4 hPa 0,0 l/m 0,3 km/h (0 Bft) S-SW 202 5 min 12,8 C 20,5 C 0,0 km/h (0 Bft)
02.09.2021 11:50 15,2 C 16,8 C 16,6 C 20,8 C 20,8 C 5,6 C 86 % 91 % 1026,4 hPa 0,0 l/m 0,2 km/h (0 Bft) W-SW 247 5 min 12,9 C 20,8 C 0,0 km/h (0 Bft)
02.09.2021 11:55 15,7 C 16,8 C 16,7 C 21,3 C 21,3 C 5,6 C 86 % 91 % 1026,1 hPa 0,0 l/m 0,0 km/h (0 Bft) W-SW 247 5 min 13,4 C 21,3 C 0,0 km/h (0 Bft)
02.09.2021 12:00 15,9 C 16,8 C 16,6 C 20,9 C 20,9 C 5,0 C 86 % 90 % 1026,1 hPa 0,0 l/m 0,2 km/h (0 Bft) W-SW 247 5 min 13,6 C 20,9 C 0,0 km/h (0 Bft)
02.09.2021 12:05 16,2 C 16,9 C 16,7 C 20,4 C 20,4 C 4,2 C 86 % 90 % 1026,1 hPa 0,0 l/m 0,2 km/h (0 Bft) W-SW 247 5 min 13,9 C 20,4 C 0,0 km/h (0 Bft)
02.09.2021 12:10 16,3 C 16,8 C 16,8 C 20,5 C 20,5 C 4,2 C 86 % 90 % 1026,1 hPa 0,0 l/m 0,2 km/h (0 Bft) SW 225 5 min 14,0 C 20,5 C 1,6 km/h (1 Bft)
02.09.2021 12:15 16,7 C 16,8 C 17,1 C 20,6 C 20,6 C 3,9 C 86 % 90 % 1025,9 hPa 0,0 l/m 0,3 km/h (0 Bft) N 360 5 min 14,3 C 20,6 C 0,0 km/h (0 Bft)
02.09.2021 12:20 16,8 C 16,8 C 17,4 C 21,3 C 21,3 C 4,5 C 86 % 89 % 1025,9 hPa 0,0 l/m 0,3 km/h (0 Bft) W-SW 247 5 min 14,4 C 21,3 C 2,1 km/h (1 Bft)
02.09.2021 12:25 17,2 C 16,8 C 17,6 C 22,6 C 22,6 C 5,4 C 86 % 89 % 1025,9 hPa 0,0 l/m 0,3 km/h (0 Bft) SW 225 5 min 14,8 C 22,6 C 1,6 km/h (1 Bft)
02.09.2021 12:30 17,4 C 16,8 C 17,6 C 22,9 C 22,9 C 5,5 C 85 % 88 % 1025,9 hPa 0,0 l/m 0,3 km/h (0 Bft) W-SW 247 5 min 14,8 C 22,9 C 0,0 km/h (0 Bft)
02.09.2021 12:35 17,8 C 16,8 C 17,8 C 24,5 C 24,5 C 6,7 C 85 % 88 % 1025,9 hPa 0,0 l/m 0,0 km/h (0 Bft) N-NW 337 5 min 15,2 C 24,5 C 0,0 km/h (0 Bft)
02.09.2021 12:40 18,1 C 16,8 C 17,7 C 24,5 C 24,5 C 6,4 C 85 % 88 % 1025,9 hPa 0,0 l/m 0,0 km/h (0 Bft) W-SW 247 5 min 15,5 C 24,5 C 0,0 km/h (0 Bft)
02.09.2021 12:45 18,2 C 16,8 C 17,7 C 23,9 C 23,9 C 5,7 C 84 % 88 % 1025,9 hPa 0,0 l/m 0,0 km/h (0 Bft) SW 225 5 min 15,4 C 23,9 C 0,0 km/h (0 Bft)
02.09.2021 12:50 18,3 C 16,8 C 17,7 C 24,4 C 24,4 C 6,1 C 84 % 86 % 1025,9 hPa 0,0 l/m 0,2 km/h (0 Bft) O-SO 112 5 min 15,5 C 24,4 C 0,0 km/h (0 Bft)
02.09.2021 12:55 18,7 C 16,8 C 18,1 C 25,0 C 25,0 C 6,3 C 83 % 86 % 1025,7 hPa 0,0 l/m 0,2 km/h (0 Bft) NW 315 5 min 15,8 C 25,0 C 0,0 km/h (0 Bft)
02.09.2021 13:00 18,8 C 16,8 C 18,4 C 26,0 C 26,0 C 7,2 C 82 % 86 % 1025,7 hPa 0,0 l/m 0,0 km/h (0 Bft) W-NW 292 5 min 15,7 C 26,0 C 0,0 km/h (0 Bft)
02.09.2021 13:05 19,3 C 16,8 C 18,5 C 26,7 C 26,7 C 7,4 C 82 % 86 % 1025,7 hPa 0,0 l/m 0,2 km/h (0 Bft) SW 225 5 min 16,1 C 26,7 C 0,0 km/h (0 Bft)
02.09.2021 13:10 19,3 C 16,8 C 18,5 C 26,7 C 26,7 C 7,4 C 82 % 86 % 1025,7 hPa 0,0 l/m 0,2 km/h (0 Bft) SW 225 5 min 16,1 C 26,7 C 0,0 km/h (0 Bft)
02.09.2021 13:15 19,5 C 16,8 C 18,2 C 25,4 C 25,4 C 5,9 C 81 % 85 % 1025,5 hPa 0,0 l/m 0,0 km/h (0 Bft) SO 135 5 min 16,1 C 25,4 C 0,0 km/h (0 Bft)
02.09.2021 13:20 19,7 C 16,8 C 18,3 C 26,3 C 26,3 C 6,6 C 80 % 85 % 1025,5 hPa 0,0 l/m 0,2 km/h (0 Bft) SW 225 5 min 16,1 C 26,3 C 0,0 km/h (0 Bft)
02.09.2021 13:25 20,1 C 16,8 C 18,5 C 27,4 C 27,4 C 7,3 C 79 % 85 % 1025,5 hPa 0,0 l/m 0,2 km/h (0 Bft) W-SW 247 5 min 16,3 C 27,4 C 0,0 km/h (0 Bft)
02.09.2021 13:30 20,3 C 16,8 C 18,6 C 28,0 C 28,0 C 7,7 C 78 % 84 % 1025,5 hPa 0,0 l/m 0,2 km/h (0 Bft) W 270 5 min 16,3 C 28,0 C 2,4 km/h (1 Bft)
02.09.2021 13:35 20,4 C 16,8 C 18,8 C 28,5 C 28,5 C 8,1 C 77 % 84 % 1024,9 hPa 0,0 l/m 0,5 km/h (0 Bft) SW 225 5 min 16,2 C 28,5 C 0,0 km/h (0 Bft)
02.09.2021 13:40 20,5 C 16,8 C 18,9 C 28,8 C 28,8 C 8,3 C 77 % 84 % 1024,9 hPa 0,0 l/m 0,5 km/h (0 Bft) W 270 5 min 16,3 C 28,8 C 2,1 km/h (1 Bft)
02.09.2021 13:45 20,9 C 16,8 C 19,1 C 29,1 C 29,1 C 8,2 C 76 % 84 % 1024,9 hPa 0,0 l/m 0,6 km/h (0 Bft) S-SO 157 5 min 16,5 C 29,1 C 4,2 km/h (1 Bft)
02.09.2021 13:50 20,9 C 16,8 C 19,1 C 28,9 C 28,9 C 8,0 C 75 % 83 % 1024,9 hPa 0,0 l/m 0,8 km/h (0 Bft) SW 225 5 min 16,3 C 28,9 C 0,0 km/h (0 Bft)
02.09.2021 13:55 21,0 C 16,8 C 19,4 C 29,6 C 29,6 C 8,6 C 75 % 83 % 1024,8 hPa 0,0 l/m 0,3 km/h (0 Bft) SO 135 5 min 16,4 C 29,6 C 0,0 km/h (0 Bft)
02.09.2021 14:00 21,1 C 16,9 C 19,9 C 29,5 C 29,5 C 8,4 C 73 % 81 % 1024,8 hPa 0,0 l/m 0,5 km/h (0 Bft) W 270 5 min 16,1 C 29,5 C 2,4 km/h (1 Bft)
02.09.2021 14:05 21,2 C 16,8 C 20,2 C 29,3 C 29,3 C 8,1 C 74 % 81 % 1024,8 hPa 0,0 l/m 1,3 km/h (1 Bft) W 270 5 min 16,4 C 29,3 C 4,0 km/h (1 Bft)
02.09.2021 14:10 21,1 C 16,8 C 19,8 C 27,8 C 27,8 C 6,7 C 73 % 78 % 1024,8 hPa 0,0 l/m 1,3 km/h (1 Bft) O 90 5 min 16,1 C 27,8 C 0,0 km/h (0 Bft)
02.09.2021 14:15 20,5 C 16,9 C 19,0 C 25,8 C 25,8 C 5,3 C 71 % 78 % 1024,7 hPa 0,0 l/m 1,3 km/h (1 Bft) O 90 5 min 15,1 C 25,8 C 2,1 km/h (1 Bft)
02.09.2021 14:20 20,3 C 16,9 C 18,8 C 24,3 C 24,3 C 4,0 C 72 % 79 % 1024,7 hPa 0,0 l/m 1,0 km/h (0 Bft) S-SO 157 5 min 15,1 C 24,3 C 0,0 km/h (0 Bft)
02.09.2021 14:25 20,3 C 16,9 C 19,1 C 25,8 C 25,8 C 5,5 C 74 % 80 % 1024,7 hPa 0,0 l/m 0,3 km/h (0 Bft) O-NO 67 5 min 15,5 C 25,8 C 0,0 km/h (0 Bft)
02.09.2021 14:30 20,3 C 16,9 C 19,3 C 26,6 C 26,6 C 6,3 C 74 % 80 % 1024,7 hPa 0,0 l/m 0,5 km/h (0 Bft) O-NO 67 5 min 15,5 C 26,6 C 1,8 km/h (1 Bft)
02.09.2021 14:35 20,4 C 16,9 C 19,1 C 26,4 C 26,4 C 6,0 C 74 % 80 % 1024,0 hPa 0,0 l/m 1,0 km/h (0 Bft) O-NO 67 5 min 15,6 C 26,4 C 3,2 km/h (1 Bft)
02.09.2021 14:40 20,5 C 16,9 C 19,2 C 26,6 C 26,6 C 6,1 C 74 % 80 % 1024,0 hPa 0,0 l/m 1,0 km/h (0 Bft) W 270 5 min 15,7 C 26,6 C 4,5 km/h (1 Bft)
02.09.2021 14:45 20,5 C 16,9 C 19,3 C 26,9 C 26,9 C 6,4 C 73 % 79 % 1024,0 hPa 0,0 l/m 2,3 km/h (1 Bft) SW 225 5 min 15,5 C 26,9 C 6,9 km/h (2 Bft)
02.09.2021 14:50 20,4 C 16,8 C 19,3 C 27,3 C 27,3 C 6,9 C 73 % 78 % 1024,0 hPa 0,0 l/m 2,1 km/h (1 Bft) W-NW 292 5 min 15,4 C 27,3 C 1,6 km/h (1 Bft)
02.09.2021 14:55 20,3 C 16,9 C 19,2 C 27,6 C 27,6 C 7,3 C 72 % 78 % 1023,8 hPa 0,0 l/m 1,0 km/h (0 Bft) O-SO 112 5 min 15,1 C 27,6 C 3,4 km/h (1 Bft)
02.09.2021 15:00 20,2 C 16,9 C 19,2 C 27,4 C 27,4 C 7,2 C 72 % 76 % 1023,8 hPa 0,0 l/m 1,4 km/h (1 Bft) S-SO 157 5 min 15,0 C 27,4 C 3,9 km/h (1 Bft)
02.09.2021 15:05 20,0 C 16,9 C 19,1 C 27,2 C 27,2 C 7,2 C 72 % 77 % 1023,8 hPa 0,0 l/m 1,8 km/h (1 Bft) N-NO 22 5 min 14,8 C 27,2 C 0,0 km/h (0 Bft)
02.09.2021 15:10 20,1 C 16,9 C 19,1 C 27,4 C 27,4 C 7,3 C 73 % 76 % 1023,8 hPa 0,0 l/m 1,4 km/h (1 Bft) O-SO 112 5 min 15,1 C 27,4 C 3,2 km/h (1 Bft)
02.09.2021 15:15 20,1 C 16,9 C 19,3 C 27,0 C 27,0 C 6,9 C 73 % 76 % 1023,8 hPa 0,0 l/m 1,1 km/h (1 Bft) O-NO 67 5 min 15,1 C 27,0 C 2,4 km/h (1 Bft)
02.09.2021 15:20 20,1 C 16,9 C 19,3 C 27,1 C 27,1 C 7,0 C 73 % 76 % 1023,8 hPa 0,0 l/m 1,6 km/h (1 Bft) N-NO 22 5 min 15,1 C 27,1 C 2,1 km/h (1 Bft)
02.09.2021 15:25 20,1 C 16,9 C 19,4 C 27,7 C 27,7 C 7,6 C 73 % 76 % 1023,8 hPa 0,0 l/m 1,1 km/h (1 Bft) W-SW 247 5 min 15,1 C 27,7 C 5,3 km/h (1 Bft)
02.09.2021 15:30 20,2 C 17,0 C 19,4 C 28,0 C 28,0 C 7,8 C 73 % 76 % 1023,8 hPa 0,0 l/m 1,0 km/h (0 Bft) O-SO 112 5 min 15,2 C 28,0 C 0,0 km/h (0 Bft)
02.09.2021 15:35 20,0 C 17,0 C 19,4 C 27,6 C 27,6 C 7,6 C 73 % 76 % 1023,6 hPa 0,0 l/m 1,0 km/h (0 Bft) O 90 5 min 15,0 C 27,6 C 0,0 km/h (0 Bft)
02.09.2021 15:40 20,1 C 17,0 C 19,5 C 27,6 C 27,6 C 7,5 C 73 % 77 % 1023,6 hPa 0,0 l/m 1,1 km/h (1 Bft) SO 135 5 min 15,1 C 27,6 C 0,0 km/h (0 Bft)
02.09.2021 15:45 20,2 C 17,0 C 19,6 C 27,8 C 27,8 C 7,6 C 73 % 76 % 1023,6 hPa 0,0 l/m 1,4 km/h (1 Bft) O-SO 112 5 min 15,2 C 27,8 C 0,0 km/h (0 Bft)
02.09.2021 15:50 20,1 C 17,0 C 19,5 C 27,4 C 27,4 C 7,3 C 73 % 76 % 1023,6 hPa 0,0 l/m 1,4 km/h (1 Bft) N-NO 22 5 min 15,1 C 27,4 C 2,4 km/h (1 Bft)
02.09.2021 15:55 20,3 C 17,0 C 19,5 C 27,5 C 27,5 C 7,2 C 73 % 76 % 1022,9 hPa 0,0 l/m 1,4 km/h (1 Bft) SO 135 5 min 15,3 C 27,5 C 2,3 km/h (1 Bft)
02.09.2021 16:00 20,3 C 17,1 C 19,5 C 27,6 C 27,6 C 7,3 C 73 % 77 % 1022,9 hPa 0,0 l/m 1,1 km/h (1 Bft) W-SW 247 5 min 15,3 C 27,6 C 0,0 km/h (0 Bft)
02.09.2021 16:05 20,2 C 17,1 C 19,6 C 28,0 C 28,0 C 7,8 C 73 % 77 % 1022,9 hPa 0,0 l/m 0,8 km/h (0 Bft) W-SW 247 5 min 15,2 C 28,0 C 3,5 km/h (1 Bft)
02.09.2021 16:10 20,4 C 17,1 C 19,6 C 28,1 C 28,1 C 7,7 C 73 % 76 % 1022,9 hPa 0,0 l/m 0,6 km/h (0 Bft) O-NO 67 5 min 15,4 C 28,1 C 0,0 km/h (0 Bft)
02.09.2021 16:15 20,4 C 17,1 C 19,6 C 27,9 C 27,9 C 7,5 C 73 % 77 % 1024,2 hPa 0,0 l/m 0,5 km/h (0 Bft) N 360 5 min 15,4 C 27,9 C 2,1 km/h (1 Bft)
02.09.2021 16:20 20,4 C 17,1 C 19,7 C 27,9 C 27,9 C 7,5 C 72 % 76 % 1024,2 hPa 0,0 l/m 0,6 km/h (0 Bft) O-SO 112 5 min 15,2 C 27,9 C 2,1 km/h (1 Bft)
02.09.2021 16:25 20,4 C 17,1 C 19,7 C 27,8 C 27,8 C 7,4 C 72 % 75 % 1024,2 hPa 0,0 l/m 0,8 km/h (0 Bft) O-NO 67 5 min 15,2 C 27,8 C 0,0 km/h (0 Bft)
02.09.2021 16:30 20,4 C 17,1 C 19,7 C 27,0 C 27,0 C 6,6 C 72 % 76 % 1024,2 hPa 0,0 l/m 0,8 km/h (0 Bft) NW 315 5 min 15,2 C 27,0 C 0,0 km/h (0 Bft)
02.09.2021 16:35 20,5 C 17,1 C 19,6 C 25,3 C 25,3 C 4,8 C 72 % 75 % 1023,4 hPa 0,0 l/m 1,0 km/h (0 Bft) NW 315 5 min 15,3 C 25,3 C 1,8 km/h (1 Bft)
02.09.2021 16:40 20,5 C 17,2 C 19,7 C 24,4 C 24,4 C 3,9 C 71 % 76 % 1023,4 hPa 0,0 l/m 0,6 km/h (0 Bft) N-NW 337 5 min 15,1 C 24,4 C 1,9 km/h (1 Bft)
02.09.2021 16:45 20,6 C 17,2 C 19,8 C 23,5 C 23,5 C 2,9 C 72 % 76 % 1023,4 hPa 0,0 l/m 0,8 km/h (0 Bft) O-NO 67 0 min 15,4 C 23,5 C 0,0 km/h (0 Bft)
02.09.2021 16:50 20,7 C 17,2 C 19,8 C 23,1 C 23,1 C 2,4 C 71 % 75 % 1023,4 hPa 0,0 l/m 1,1 km/h (1 Bft) SW 225 0 min 15,2 C 23,1 C 0,0 km/h (0 Bft)
02.09.2021 16:55 20,8 C 17,2 C 19,8 C 22,7 C 22,7 C 1,9 C 71 % 75 % 1023,0 hPa 0,0 l/m 0,8 km/h (0 Bft) NO 45 0 min 15,3 C 22,7 C 1,9 km/h (1 Bft)
02.09.2021 17:00 20,8 C 17,2 C 19,8 C 22,3 C 22,3 C 1,5 C 71 % 76 % 1023,0 hPa 0,0 l/m 0,5 km/h (0 Bft) NO 45 0 min 15,3 C 22,3 C 1,8 km/h (1 Bft)
02.09.2021 17:05 20,8 C 17,3 C 19,7 C 22,0 C 22,0 C 1,2 C 71 % 77 % 1023,0 hPa 0,0 l/m 0,6 km/h (0 Bft) NO 45 0 min 15,3 C 22,0 C 1,6 km/h (1 Bft)
02.09.2021 17:10 20,7 C 17,3 C 19,6 C 21,9 C 21,9 C 1,2 C 71 % 76 % 1023,0 hPa 0,0 l/m 0,5 km/h (0 Bft) N-NW 337 0 min 15,2 C 21,9 C 0,0 km/h (0 Bft)
02.09.2021 17:15 20,8 C 17,3 C 19,6 C 21,9 C 21,9 C 1,1 C 71 % 78 % 1023,1 hPa 0,0 l/m 0,3 km/h (0 Bft) S 180 0 min 15,3 C 21,9 C 1,9 km/h (1 Bft)
02.09.2021 17:20 20,9 C 17,3 C 19,6 C 21,9 C 21,9 C 1,0 C 71 % 76 % 1023,1 hPa 0,0 l/m 0,2 km/h (0 Bft) O-SO 112 0 min 15,4 C 21,9 C 0,0 km/h (0 Bft)
02.09.2021 17:25 20,7 C 17,3 C 19,8 C 21,7 C 21,7 C 1,0 C 71 % 75 % 1023,1 hPa 0,0 l/m 0,8 km/h (0 Bft) O 90 0 min 15,2 C 21,7 C 0,0 km/h (0 Bft)
02.09.2021 17:30 20,6 C 17,3 C 19,8 C 21,6 C 21,6 C 1,0 C 71 % 75 % 1023,1 hPa 0,0 l/m 1,1 km/h (1 Bft) O 90 0 min 15,2 C 21,6 C 0,0 km/h (0 Bft)
02.09.2021 17:35 20,6 C 17,3 C 19,9 C 21,6 C 21,6 C 1,0 C 71 % 76 % 1023,1 hPa 0,0 l/m 0,5 km/h (0 Bft) O-NO 67 0 min 15,2 C 21,6 C 0,0 km/h (0 Bft)
02.09.2021 17:40 20,7 C 17,3 C 20,2 C 21,6 C 21,6 C 0,9 C 71 % 76 % 1023,1 hPa 0,0 l/m 0,0 km/h (0 Bft) S-SO 157 0 min 15,2 C 21,6 C 0,0 km/h (0 Bft)
02.09.2021 17:45 20,7 C 17,4 C 20,2 C 21,6 C 21,6 C 0,9 C 71 % 74 % 1023,1 hPa 0,0 l/m 0,2 km/h (0 Bft) S 180 0 min 15,2 C 21,6 C 3,1 km/h (1 Bft)
02.09.2021 17:50 20,7 C 17,4 C 20,3 C 21,6 C 21,6 C 0,9 C 71 % 75 % 1023,1 hPa 0,0 l/m 1,0 km/h (0 Bft) O-NO 67 0 min 15,2 C 21,6 C 2,3 km/h (1 Bft)
02.09.2021 17:55 20,6 C 17,3 C 20,1 C 21,5 C 21,5 C 0,9 C 71 % 75 % 1022,8 hPa 0,0 l/m 1,0 km/h (0 Bft) O 90 0 min 15,2 C 21,5 C 0,0 km/h (0 Bft)
02.09.2021 18:00 20,6 C 17,3 C 19,9 C 21,6 C 21,6 C 1,0 C 71 % 75 % 1022,8 hPa 0,0 l/m 0,5 km/h (0 Bft) W 270 0 min 15,2 C 21,6 C 1,6 km/h (1 Bft)
02.09.2021 18:05 20,6 C 17,3 C 19,9 C 21,5 C 21,5 C 0,9 C 72 % 75 % 1022,8 hPa 0,0 l/m 0,3 km/h (0 Bft) W-NW 292 0 min 15,4 C 21,5 C 2,3 km/h (1 Bft)
02.09.2021 18:10 20,7 C 17,4 C 19,9 C 21,4 C 21,4 C 0,7 C 72 % 76 % 1022,8 hPa 0,0 l/m 1,0 km/h (0 Bft) W-NW 292 0 min 15,5 C 21,4 C 2,4 km/h (1 Bft)
02.09.2021 18:15 20,8 C 17,4 C 19,9 C 21,3 C 21,3 C 0,5 C 72 % 76 % 1022,8 hPa 0,0 l/m 1,1 km/h (1 Bft) NW 315 0 min 15,6 C 21,3 C 0,0 km/h (0 Bft)
02.09.2021 18:20 20,8 C 17,5 C 19,7 C 21,2 C 21,2 C 0,4 C 72 % 76 % 1022,8 hPa 0,0 l/m 0,5 km/h (0 Bft) O-NO 67 0 min 15,6 C 21,2 C 0,0 km/h (0 Bft)
02.09.2021 18:25 20,9 C 17,5 C 19,7 C 21,1 C 21,1 C 0,2 C 72 % 76 % 1022,8 hPa 0,0 l/m 0,2 km/h (0 Bft) NW 315 0 min 15,7 C 21,1 C 0,0 km/h (0 Bft)
02.09.2021 18:30 20,8 C 17,5 C 19,7 C 21,0 C 21,0 C 0,2 C 72 % 76 % 1022,8 hPa 0,0 l/m 0,3 km/h (0 Bft) N-NW 337 0 min 15,6 C 21,0 C 2,3 km/h (1 Bft)
02.09.2021 18:35 20,9 C 17,5 C 19,6 C 20,9 C 20,9 C 0,0 C 72 % 76 % 1022,5 hPa 0,0 l/m 0,3 km/h (0 Bft) N-NW 337 0 min 15,7 C 20,9 C 0,0 km/h (0 Bft)
02.09.2021 18:40 20,9 C 17,5 C 19,6 C 20,9 C 20,9 C 0,0 C 72 % 76 % 1022,5 hPa 0,0 l/m 0,3 km/h (0 Bft) N-NW 337 0 min 15,7 C 20,9 C 2,1 km/h (1 Bft)
02.09.2021 18:45 20,7 C 17,5 C 19,4 C 20,7 C 20,7 C 0,0 C 73 % 78 % 1022,5 hPa 0,0 l/m 0,2 km/h (0 Bft) O-NO 67 0 min 15,7 C 20,7 C 0,0 km/h (0 Bft)
02.09.2021 18:50 20,6 C 17,5 C 19,2 C 20,7 C 20,7 C 0,1 C 73 % 78 % 1022,5 hPa 0,0 l/m 0,0 km/h (0 Bft) O-NO 67 0 min 15,6 C 20,7 C 0,0 km/h (0 Bft)
02.09.2021 18:55 20,4 C 17,5 C 19,0 C 20,4 C 20,4 C 0,0 C 74 % 79 % 1022,4 hPa 0,0 l/m 0,0 km/h (0 Bft) O-NO 67 0 min 15,6 C 20,4 C 0,0 km/h (0 Bft)
02.09.2021 19:00 20,4 C 17,5 C 18,9 C 20,3 C 20,2 C 0,0 C 74 % 80 % 1022,4 hPa 0,0 l/m 0,0 km/h (0 Bft) O-NO 67 0 min 15,6 C 20,2 C 0,0 km/h (0 Bft)
02.09.2021 19:05 20,3 C 17,5 C 18,7 C 20,2 C 19,9 C 0,0 C 74 % 80 % 1022,4 hPa 0,0 l/m 0,0 km/h (0 Bft) O-NO 67 0 min 15,5 C 19,9 C 0,0 km/h (0 Bft)
02.09.2021 19:10 20,1 C 17,6 C 18,7 C 20,0 C 19,7 C 0,0 C 74 % 80 % 1022,4 hPa 0,0 l/m 0,0 km/h (0 Bft) O-NO 67 0 min 15,3 C 19,7 C 0,0 km/h (0 Bft)
02.09.2021 19:15 19,9 C 17,6 C 18,5 C 19,7 C 19,3 C 0,0 C 75 % 81 % 1022,4 hPa 0,0 l/m 0,0 km/h (0 Bft) O-NO 67 0 min 15,3 C 19,3 C 0,0 km/h (0 Bft)
02.09.2021 19:20 19,9 C 17,6 C 18,3 C 19,7 C 19,2 C 0,0 C 75 % 82 % 1022,4 hPa 0,0 l/m 0,0 km/h (0 Bft) O-NO 67 0 min 15,3 C 19,2 C 0,0 km/h (0 Bft)
02.09.2021 19:25 19,6 C 17,7 C 18,1 C 19,4 C 19,1 C 0,0 C 76 % 82 % 1022,4 hPa 0,0 l/m 0,0 km/h (0 Bft) O-NO 67 0 min 15,2 C 19,1 C 0,0 km/h (0 Bft)
02.09.2021 19:30 19,5 C 17,7 C 17,9 C 19,4 C 19,1 C 0,0 C 76 % 82 % 1022,4 hPa 0,0 l/m 0,0 km/h (0 Bft) O-NO 67 0 min 15,2 C 19,1 C 0,0 km/h (0 Bft)
02.09.2021 19:35 19,2 C 17,7 C 17,7 C 19,0 C 18,6 C 0,0 C 77 % 83 % 1021,4 hPa 0,0 l/m 0,0 km/h (0 Bft) O-NO 67 0 min 15,1 C 18,6 C 0,0 km/h (0 Bft)
02.09.2021 19:40 19,1 C 17,7 C 17,6 C 18,8 C 18,3 C 0,0 C 77 % 84 % 1021,4 hPa 0,0 l/m 0,0 km/h (0 Bft) O-NO 67 0 min 15,0 C 18,3 C 0,0 km/h (0 Bft)
02.09.2021 19:45 18,8 C 17,8 C 17,3 C 18,4 C 17,7 C 0,0 C 78 % 84 % 1021,4 hPa 0,0 l/m 0,0 km/h (0 Bft) O-NO 67 0 min 14,9 C 17,7 C 0,0 km/h (0 Bft)
02.09.2021 19:50 18,7 C 17,8 C 17,1 C 18,2 C 17,3 C 0,0 C 78 % 85 % 1021,4 hPa 0,0 l/m 0,0 km/h (0 Bft) O-NO 67 0 min 14,8 C 17,3 C 0,0 km/h (0 Bft)
02.09.2021 19:55 18,4 C 17,9 C 16,8 C 17,8 C 16,7 C 0,0 C 78 % 86 % 1022,2 hPa 0,0 l/m 0,0 km/h (0 Bft) O-NO 67 0 min 14,5 C 16,7 C 0,0 km/h (0 Bft)
02.09.2021 20:00 18,2 C 17,9 C 16,7 C 17,6 C 16,5 C 0,0 C 79 % 86 % 1022,2 hPa 0,0 l/m 0,0 km/h (0 Bft) O-NO 67 0 min 14,5 C 16,5 C 0,0 km/h (0 Bft)
02.09.2021 20:05 18,0 C 18,0 C 16,5 C 17,3 C 16,0 C 0,0 C 79 % 87 % 1022,2 hPa 0,0 l/m 0,0 km/h (0 Bft) O-NO 67 0 min 14,3 C 16,0 C 0,0 km/h (0 Bft)
02.09.2021 20:10 17,9 C 18,0 C 16,4 C 17,2 C 15,7 C 0,0 C 79 % 87 % 1022,2 hPa 0,0 l/m 0,0 km/h (0 Bft) O-NO 67 0 min 14,2 C 15,7 C 0,0 km/h (0 Bft)
02.09.2021 20:15 17,7 C 18,0 C 16,2 C 17,0 C 15,6 C 0,0 C 80 % 88 % 1022,2 hPa 0,0 l/m 0,0 km/h (0 Bft) O-NO 67 0 min 14,2 C 15,6 C 0,0 km/h (0 Bft)
02.09.2021 20:20 17,4 C 18,0 C 16,0 C 16,7 C 15,4 C 0,0 C 81 % 88 % 1022,2 hPa 0,0 l/m 0,0 km/h (0 Bft) O-NO 67 0 min 14,1 C 15,4 C 0,0 km/h (0 Bft)
02.09.2021 20:25 17,2 C 18,0 C 15,8 C 16,6 C 15,3 C 0,0 C 82 % 88 % 1022,2 hPa 0,0 l/m 0,0 km/h (0 Bft) O-NO 67 0 min 14,1 C 15,3 C 0,0 km/h (0 Bft)
02.09.2021 20:30 17,1 C 18,0 C 15,7 C 16,5 C 15,2 C 0,0 C 82 % 88 % 1022,2 hPa 0,0 l/m 0,0 km/h (0 Bft) O-NO 67 0 min 14,0 C 15,2 C 0,0 km/h (0 Bft)
02.09.2021 20:35 16,9 C 18,1 C 15,5 C 16,3 C 15,1 C 0,0 C 82 % 89 % 1022,3 hPa 0,0 l/m 0,0 km/h (0 Bft) O-NO 67 0 min 13,8 C 15,1 C 0,0 km/h (0 Bft)
02.09.2021 20:40 16,8 C 18,1 C 15,4 C 16,2 C 15,0 C 0,0 C 83 % 89 % 1022,3 hPa 0,0 l/m 0,0 km/h (0 Bft) O-NO 67 0 min 13,9 C 15,0 C 0,0 km/h (0 Bft)
02.09.2021 20:45 16,6 C 18,1 C 15,3 C 16,0 C 14,9 C 0,0 C 84 % 90 % 1022,3 hPa 0,0 l/m 0,0 km/h (0 Bft) O-NO 67 0 min 13,9 C 14,9 C 0,0 km/h (0 Bft)
02.09.2021 20:50 16,4 C 18,1 C 15,2 C 15,9 C 14,9 C 0,0 C 84 % 90 % 1022,3 hPa 0,0 l/m 0,0 km/h (0 Bft) O-NO 67 0 min 13,7 C 14,9 C 0,0 km/h (0 Bft)
02.09.2021 20:55 16,3 C 18,1 C 15,0 C 15,8 C 14,8 C 0,0 C 84 % 90 % 1022,2 hPa 0,0 l/m 0,0 km/h (0 Bft) O-NO 67 0 min 13,6 C 14,8 C 0,0 km/h (0 Bft)
02.09.2021 21:00 16,2 C 18,1 C 14,9 C 15,7 C 14,6 C 0,0 C 84 % 90 % 1022,2 hPa 0,0 l/m 0,0 km/h (0 Bft) O-NO 67 0 min 13,5 C 14,6 C 0,0 km/h (0 Bft)
02.09.2021 21:05 16,0 C 18,1 C 14,9 C 15,5 C 14,4 C 0,0 C 85 % 90 % 1022,2 hPa 0,0 l/m 0,0 km/h (0 Bft) O-NO 67 0 min 13,5 C 14,4 C 0,0 km/h (0 Bft)
02.09.2021 21:10 15,9 C 18,1 C 14,9 C 15,3 C 14,2 C 0,0 C 85 % 91 % 1022,2 hPa 0,0 l/m 0,0 km/h (0 Bft) O-NO 67 0 min 13,4 C 14,2 C 0,0 km/h (0 Bft)
02.09.2021 21:15 15,6 C 18,1 C 14,7 C 15,1 C 14,1 C 0,0 C 84 % 91 % 1022,8 hPa 0,0 l/m 0,0 km/h (0 Bft) O-NO 67 0 min 12,9 C 14,1 C 0,0 km/h (0 Bft)
02.09.2021 21:20 15,6 C 18,1 C 14,6 C 15,1 C 14,1 C 0,0 C 85 % 91 % 1022,8 hPa 0,0 l/m 0,0 km/h (0 Bft) O-NO 67 0 min 13,1 C 14,1 C 0,0 km/h (0 Bft)
02.09.2021 21:25 15,5 C 18,1 C 14,5 C 15,0 C 14,1 C 0,0 C 85 % 91 % 1022,8 hPa 0,0 l/m 0,0 km/h (0 Bft) O-NO 67 0 min 13,0 C 14,1 C 0,0 km/h (0 Bft)
02.09.2021 21:30 15,3 C 18,1 C 14,4 C 14,8 C 13,9 C 0,0 C 85 % 91 % 1022,8 hPa 0,0 l/m 0,0 km/h (0 Bft) O-NO 67 0 min 12,8 C 13,9 C 0,0 km/h (0 Bft)
02.09.2021 21:35 15,2 C 18,1 C 14,3 C 14,8 C 13,9 C 0,0 C 85 % 91 % 1022,2 hPa 0,0 l/m 0,0 km/h (0 Bft) O-NO 67 0 min 12,7 C 13,9 C 0,0 km/h (0 Bft)
02.09.2021 21:40 15,1 C 18,1 C 14,3 C 14,7 C 13,9 C 0,0 C 86 % 91 % 1022,2 hPa 0,0 l/m 0,0 km/h (0 Bft) O-NO 67 0 min 12,8 C 13,9 C 0,0 km/h (0 Bft)
02.09.2021 21:45 14,9 C 18,2 C 14,2 C 14,5 C 13,6 C 0,0 C 85 % 92 % 1022,2 hPa 0,0 l/m 0,0 km/h (0 Bft) O-NO 67 0 min 12,4 C 13,6 C 0,0 km/h (0 Bft)
02.09.2021 21:50 14,8 C 18,2 C 14,1 C 14,4 C 13,6 C 0,0 C 85 % 92 % 1022,2 hPa 0,0 l/m 0,0 km/h (0 Bft) O-NO 67 0 min 12,3 C 13,6 C 0,0 km/h (0 Bft)
02.09.2021 21:55 14,7 C 18,2 C 14,1 C 14,3 C 13,4 C 0,0 C 86 % 92 % 1022,0 hPa 0,0 l/m 0,0 km/h (0 Bft) O-NO 67 0 min 12,4 C 13,4 C 0,0 km/h (0 Bft)
02.09.2021 22:00 14,5 C 18,2 C 14,0 C 14,1 C 13,2 C 0,0 C 86 % 92 % 1022,0 hPa 0,0 l/m 0,0 km/h (0 Bft) O-NO 67 0 min 12,2 C 13,2 C 0,0 km/h (0 Bft)
02.09.2021 22:05 14,4 C 18,2 C 13,9 C 14,0 C 13,1 C 0,0 C 86 % 92 % 1022,0 hPa 0,0 l/m 0,0 km/h (0 Bft) O-NO 67 0 min 12,1 C 13,1 C 0,0 km/h (0 Bft)
02.09.2021 22:10 14,3 C 18,2 C 13,9 C 13,9 C 13,1 C 0,0 C 86 % 92 % 1022,0 hPa 0,0 l/m 0,0 km/h (0 Bft) O-NO 67 0 min 12,0 C 13,1 C 0,0 km/h (0 Bft)
02.09.2021 22:15 14,1 C 18,2 C 13,7 C 13,8 C 13,1 C 0,0 C 86 % 91 % 1021,9 hPa 0,0 l/m 0,0 km/h (0 Bft) O-NO 67 0 min 11,8 C 13,1 C 0,0 km/h (0 Bft)
02.09.2021 22:20 14,1 C 18,2 C 13,6 C 13,8 C 13,1 C 0,0 C 86 % 92 % 1021,9 hPa 0,0 l/m 0,0 km/h (0 Bft) O-NO 67 0 min 11,8 C 13,1 C 0,0 km/h (0 Bft)
02.09.2021 22:25 13,8 C 18,2 C 13,5 C 13,5 C 13,0 C 0,0 C 86 % 92 % 1021,9 hPa 0,0 l/m 0,0 km/h (0 Bft) O-NO 67 0 min 11,5 C 13,0 C 0,0 km/h (0 Bft)
02.09.2021 22:30 13,8 C 18,2 C 13,5 C 13,5 C 12,9 C 0,0 C 86 % 92 % 1021,9 hPa 0,0 l/m 0,0 km/h (0 Bft) O-NO 67 0 min 11,5 C 12,9 C 0,0 km/h (0 Bft)
02.09.2021 22:35 13,6 C 18,2 C 13,4 C 13,3 C 12,8 C 0,0 C 86 % 92 % 1021,9 hPa 0,0 l/m 0,0 km/h (0 Bft) O-NO 67 0 min 11,3 C 12,8 C 0,0 km/h (0 Bft)
02.09.2021 22:40 13,6 C 18,2 C 13,3 C 13,3 C 12,6 C 0,0 C 86 % 92 % 1021,9 hPa 0,0 l/m 0,0 km/h (0 Bft) O-NO 67 0 min 11,3 C 12,6 C 0,0 km/h (0 Bft)
02.09.2021 22:45 13,4 C 18,1 C 13,3 C 13,1 C 12,5 C 0,0 C 86 % 92 % 1021,9 hPa 0,0 l/m 0,0 km/h (0 Bft) O-NO 67 0 min 11,1 C 12,5 C 0,0 km/h (0 Bft)
02.09.2021 22:50 13,3 C 18,1 C 13,2 C 13,0 C 12,4 C 0,0 C 86 % 92 % 1021,9 hPa 0,0 l/m 0,0 km/h (0 Bft) O-NO 67 0 min 11,0 C 12,4 C 0,0 km/h (0 Bft)
02.09.2021 22:55 13,3 C 18,1 C 13,1 C 13,0 C 12,3 C 0,0 C 86 % 92 % 1021,6 hPa 0,0 l/m 0,0 km/h (0 Bft) O-NO 67 0 min 11,0 C 12,3 C 0,0 km/h (0 Bft)
02.09.2021 23:00 13,1 C 18,1 C 13,1 C 12,8 C 12,2 C 0,0 C 86 % 92 % 1021,6 hPa 0,0 l/m 0,0 km/h (0 Bft) O-NO 67 0 min 10,8 C 12,2 C 0,0 km/h (0 Bft)
02.09.2021 23:05 13,1 C 18,1 C 13,0 C 12,8 C 12,2 C 0,0 C 86 % 92 % 1021,6 hPa 0,0 l/m 0,0 km/h (0 Bft) O-NO 67 0 min 10,8 C 12,2 C 0,0 km/h (0 Bft)
02.09.2021 23:10 12,9 C 18,1 C 12,9 C 12,6 C 12,1 C 0,0 C 86 % 92 % 1021,6 hPa 0,0 l/m 0,0 km/h (0 Bft) O-NO 67 0 min 10,6 C 12,1 C 0,0 km/h (0 Bft)
02.09.2021 23:15 12,9 C 18,1 C 12,8 C 12,6 C 12,0 C 0,0 C 86 % 93 % 1021,8 hPa 0,0 l/m 0,0 km/h (0 Bft) O-NO 67 0 min 10,6 C 12,0 C 0,0 km/h (0 Bft)
02.09.2021 23:20 12,7 C 18,1 C 12,8 C 12,5 C 12,0 C 0,0 C 86 % 93 % 1021,8 hPa 0,0 l/m 0,0 km/h (0 Bft) O-NO 67 0 min 10,4 C 12,0 C 0,0 km/h (0 Bft)
02.09.2021 23:25 12,7 C 18,1 C 12,7 C 12,4 C 11,9 C 0,0 C 86 % 93 % 1021,8 hPa 0,0 l/m 0,0 km/h (0 Bft) O-NO 67 0 min 10,4 C 11,9 C 0,0 km/h (0 Bft)
02.09.2021 23:30 12,5 C 18,1 C 12,7 C 12,3 C 11,8 C 0,0 C 86 % 93 % 1021,8 hPa 0,0 l/m 0,0 km/h (0 Bft) O-NO 67 0 min 10,2 C 11,8 C 0,0 km/h (0 Bft)
02.09.2021 23:35 12,4 C 18,1 C 12,6 C 12,2 C 11,8 C 0,0 C 86 % 93 % 1022,1 hPa 0,0 l/m 0,0 km/h (0 Bft) O-NO 67 0 min 10,1 C 11,8 C 0,0 km/h (0 Bft)
02.09.2021 23:40 12,4 C 18,1 C 12,5 C 12,2 C 11,8 C 0,0 C 86 % 93 % 1022,1 hPa 0,0 l/m 0,0 km/h (0 Bft) O-NO 67 0 min 10,1 C 11,8 C 0,0 km/h (0 Bft)
02.09.2021 23:45 12,2 C 18,1 C 12,4 C 12,1 C 11,8 C 0,0 C 86 % 93 % 1022,1 hPa 0,0 l/m 0,0 km/h (0 Bft) O-NO 67 0 min 9,9 C 11,8 C 0,0 km/h (0 Bft)
02.09.2021 23:50 12,3 C 18,1 C 12,4 C 12,1 C 11,7 C 0,0 C 86 % 93 % 1022,1 hPa 0,0 l/m 0,0 km/h (0 Bft) O-NO 67 0 min 10,0 C 11,7 C 0,0 km/h (0 Bft)
02.09.2021 23:55 12,1 C 18,1 C 12,3 C 11,9 C 11,6 C 0,0 C 87 % 93 % 1022,0 hPa 0,0 l/m 0,0 km/h (0 Bft) O-NO 67 0 min 10,0 C 11,6 C 0,0 km/h (0 Bft)
_ Min-Zeit 06:55 11:40 05:45 05:40 05:40 00:00 14:15 17:45 19:35 - 00:00 - - - 06:55 05:40 00:00
Minimum _ 7,5 C 16,8 C 9,4 C 8,6 C 8,6 C 0,0 C 71 % 74 % 1021,4 hPa - 0,0 km/h (0 Bft) - - - 5,3 C 8,6 C 0,0 km/h (0 Bft)
_ Max-Zeit 14:05 21:45 17:50 13:55 13:55 13:55 04:15 04:25 11:35 00:00 14:45 - - 06:35 13:45 13:55 14:45
Maximum _ 21,2 C 18,2 C 20,3 C 29,6 C 29,6 C 8,6 C 87 % 94 % 1026,4 hPa 0,0 l/m 2,3 km/h
SW (1 Bft)
- - 5 min 16,5 C 29,6 C 6,9 km/h
SW (2 Bft)
Durchschnitt _ 14,3 C 17,4 C 14,5 C 16,6 C 16,4 C 2,4 C 82 % 88 % 1024,1 hPa #0,0 l/m 0,2 km/h (0 Bft) N-NO - #8:45 h 11,2 C 16,4 C 0,4 km/h (0 Bft)
2021 www.wetterstation-wechselburg.de